createdAt,value
2022-11-05T00:01:54.162Z,99507.03
2022-11-05T00:04:39.503Z,99499.28
2022-11-05T00:07:36.005Z,99501.50
2022-11-05T00:10:06.669Z,99491.69
2022-11-05T00:12:52.098Z,99493.06
2022-11-05T00:15:37.244Z,99494.09
2022-11-05T00:18:04.095Z,99501.06
2022-11-05T00:20:30.854Z,99496.78
2022-11-05T00:23:20.889Z,99501.72
2022-11-05T00:25:58.984Z,99487.84
2022-11-05T00:28:27.065Z,99493.13
2022-11-05T00:30:54.427Z,99488.00
2022-11-05T00:33:21.232Z,99487.41
2022-11-05T00:35:48.033Z,99482.91
2022-11-05T00:38:14.805Z,99483.72
2022-11-05T00:40:41.723Z,99485.16
2022-11-05T00:43:27.200Z,99487.03
2022-11-05T00:45:54.028Z,99483.94
2022-11-05T00:48:39.294Z,99495.63
2022-11-05T00:51:06.611Z,99478.81
2022-11-05T00:53:33.629Z,99488.03
2022-11-05T00:56:00.751Z,99483.50
2022-11-05T00:58:29.243Z,99482.50
2022-11-05T01:01:00.741Z,99476.94
2022-11-05T01:03:30.857Z,99475.53
2022-11-05T01:06:06.724Z,99478.41
2022-11-05T01:08:33.757Z,99489.25
2022-11-05T01:11:00.490Z,99482.72
2022-11-05T01:13:29.994Z,99478.44
2022-11-05T01:15:57.124Z,99470.63
2022-11-05T01:18:24.817Z,99470.66
2022-11-05T01:20:51.586Z,99472.69
2022-11-05T01:23:19.402Z,99465.84
2022-11-05T01:25:46.492Z,99468.66
2022-11-05T01:28:13.321Z,99463.16
2022-11-05T01:30:40.157Z,99466.09
2022-11-05T01:33:07.198Z,99458.13
2022-11-05T01:35:33.990Z,99462.84
2022-11-05T01:38:00.730Z,99455.22
2022-11-05T01:40:27.651Z,99447.66
2022-11-05T01:42:54.447Z,99447.03
2022-11-05T01:45:23.946Z,99453.41
2022-11-05T01:48:09.111Z,99457.75
2022-11-05T01:50:56.816Z,99458.13
2022-11-05T01:53:34.289Z,99457.34
2022-11-05T01:56:15.835Z,99456.47
2022-11-05T01:59:01.369Z,99447.66
2022-11-05T02:01:28.444Z,99455.91
2022-11-05T02:03:59.748Z,99453.97
2022-11-05T02:06:29.489Z,99449.09
2022-11-05T02:09:00.982Z,99461.31
2022-11-05T02:11:27.843Z,99449.03
2022-11-05T02:13:54.803Z,99452.53
2022-11-05T02:16:28.498Z,99448.78
2022-11-05T02:19:07.322Z,99442.03
2022-11-05T02:22:11.608Z,99437.97
2022-11-05T02:25:03.357Z,99433.94
2022-11-05T02:28:10.609Z,99430.41
2022-11-05T02:31:01.795Z,99427.81
2022-11-05T02:33:40.761Z,99431.22
2022-11-05T02:36:44.825Z,99435.56
2022-11-05T02:39:40.700Z,99429.22
2022-11-05T02:42:44.721Z,99433.50
2022-11-05T02:45:30.034Z,99436.34
2022-11-05T02:48:08.717Z,99433.00
2022-11-05T02:50:44.176Z,99432.59
2022-11-05T02:53:22.640Z,99431.56
2022-11-05T02:56:03.252Z,99434.63
2022-11-05T02:58:30.650Z,99431.59
2022-11-05T03:01:02.111Z,99429.13
2022-11-05T03:03:35.536Z,99435.44
2022-11-05T03:06:08.492Z,99434.44
2022-11-05T03:08:41.215Z,99434.16
2022-11-05T03:11:14.340Z,99425.63
2022-11-05T03:13:53.275Z,99424.91
2022-11-05T03:16:31.820Z,99423.94
2022-11-05T03:19:37.462Z,99410.66
2022-11-05T03:22:25.612Z,99398.66
2022-11-05T03:24:55.698Z,99392.00
2022-11-05T03:27:31.503Z,99387.28
2022-11-05T03:30:04.711Z,99391.16
2022-11-05T03:32:34.405Z,99404.78
2022-11-05T03:35:23.800Z,99389.41
2022-11-05T03:37:55.104Z,99390.47
2022-11-05T03:40:22.695Z,99383.94
2022-11-05T03:42:52.458Z,99380.16
2022-11-05T03:45:22.861Z,99368.03
2022-11-05T03:47:50.934Z,99368.66
2022-11-05T03:50:25.155Z,99367.66
2022-11-05T03:53:00.217Z,99364.47
2022-11-05T03:55:35.962Z,99363.50
2022-11-05T03:58:05.236Z,99359.47
2022-11-05T04:00:32.382Z,99356.94
2022-11-05T04:02:59.232Z,99360.28
2022-11-05T04:05:26.028Z,99359.03
2022-11-05T04:08:14.324Z,99359.63
2022-11-05T04:10:47.599Z,99360.50
2022-11-05T04:13:26.883Z,99354.25
2022-11-05T04:16:14.331Z,99365.59
2022-11-05T04:18:41.783Z,99366.97
2022-11-05T04:21:28.063Z,99370.88
2022-11-05T04:24:10.209Z,99354.44
2022-11-05T04:26:43.718Z,99350.28
2022-11-05T04:29:29.531Z,99348.84
2022-11-05T04:31:56.632Z,99353.59
2022-11-05T04:34:23.571Z,99361.78
2022-11-05T04:36:53.285Z,99368.25
2022-11-05T04:39:20.948Z,99356.13
2022-11-05T04:41:50.783Z,99361.41
2022-11-05T04:44:19.070Z,99354.69
2022-11-05T04:46:45.920Z,99339.81
2022-11-05T04:49:13.119Z,99339.09
2022-11-05T04:51:39.809Z,99336.72
2022-11-05T04:54:06.599Z,99336.94
2022-11-05T04:56:33.590Z,99334.59
2022-11-05T04:59:00.945Z,99335.63
2022-11-05T05:01:27.804Z,99334.00
2022-11-05T05:03:55.648Z,99326.53
2022-11-05T05:06:22.781Z,99318.28
2022-11-05T05:08:50.567Z,99315.63
2022-11-05T05:11:19.185Z,99315.25
2022-11-05T05:13:46.397Z,99324.19
2022-11-05T05:16:20.825Z,99323.88
2022-11-05T05:18:48.327Z,99316.97
2022-11-05T05:21:34.809Z,99318.41
2022-11-05T05:24:01.933Z,99326.63
2022-11-05T05:26:29.057Z,99328.41
2022-11-05T05:28:55.954Z,99318.63
2022-11-05T05:31:23.174Z,99315.06
2022-11-05T05:33:53.964Z,99318.28
2022-11-05T05:36:22.401Z,99306.91
2022-11-05T05:38:49.214Z,99302.72
2022-11-05T05:41:16.682Z,99301.97
2022-11-05T05:43:43.569Z,99295.34
2022-11-05T05:46:13.076Z,99303.09
2022-11-05T05:48:41.044Z,99301.66
2022-11-05T05:51:10.325Z,99292.22
2022-11-05T05:53:37.622Z,99291.59
2022-11-05T05:56:05.598Z,99285.47
2022-11-05T05:58:36.403Z,99292.06
2022-11-05T06:01:06.107Z,99286.28
2022-11-05T06:03:33.050Z,99278.47
2022-11-05T06:06:01.903Z,99277.72
2022-11-05T06:08:29.690Z,99278.25
2022-11-05T06:10:56.590Z,99264.47
2022-11-05T06:13:23.474Z,99268.19
2022-11-05T06:15:51.706Z,99266.63
2022-11-05T06:18:18.599Z,99262.88
2022-11-05T06:20:45.466Z,99268.19
2022-11-05T06:23:12.623Z,99271.50
2022-11-05T06:25:41.403Z,99262.47
2022-11-05T06:28:08.469Z,99254.63
2022-11-05T06:30:35.508Z,99247.94
2022-11-05T06:33:05.763Z,99249.13
2022-11-05T06:35:34.039Z,99251.66
2022-11-05T06:38:01.638Z,99245.16
2022-11-05T06:40:29.075Z,99248.56
2022-11-05T06:42:55.866Z,99238.53
2022-11-05T06:45:22.785Z,99231.91
2022-11-05T06:47:56.010Z,99235.78
2022-11-05T06:50:23.799Z,99238.25
2022-11-05T06:52:57.628Z,99235.56
2022-11-05T06:55:25.368Z,99244.44
2022-11-05T06:57:52.114Z,99239.22
2022-11-05T07:00:19.260Z,99241.88
2022-11-05T07:02:46.913Z,99237.91
2022-11-05T07:05:14.714Z,99241.38
2022-11-05T07:07:42.507Z,99251.88
2022-11-05T07:10:12.720Z,99242.72
2022-11-05T07:12:39.487Z,99228.13
2022-11-05T07:15:07.590Z,99219.81
2022-11-05T07:17:34.381Z,99209.66
2022-11-05T07:20:01.046Z,99186.44
2022-11-05T07:22:27.878Z,99182.28
2022-11-05T07:24:54.611Z,99179.72
2022-11-05T07:27:21.713Z,99179.97
2022-11-05T07:29:49.547Z,99187.75
2022-11-05T07:32:16.383Z,99190.59
2022-11-05T07:34:43.258Z,99198.69
2022-11-05T07:37:10.029Z,99195.25
2022-11-05T07:39:36.807Z,99191.72
2022-11-05T07:42:03.667Z,99190.56
2022-11-05T07:44:33.469Z,99183.25
2022-11-05T07:47:00.322Z,99171.25
2022-11-05T07:49:27.011Z,99172.91
2022-11-05T07:51:53.918Z,99164.84
2022-11-05T07:54:20.748Z,99168.41
2022-11-05T07:56:48.056Z,99160.56
2022-11-05T07:59:14.755Z,99161.81
2022-11-05T08:01:41.683Z,99160.56
2022-11-05T08:04:08.642Z,99151.53
2022-11-05T08:06:35.674Z,99154.81
2022-11-05T08:09:02.486Z,99164.09
2022-11-05T08:11:29.346Z,99163.84
2022-11-05T08:13:56.044Z,99155.28
2022-11-05T08:16:22.802Z,99157.19
2022-11-05T08:18:49.753Z,99148.91
2022-11-05T08:21:16.727Z,99147.50
2022-11-05T08:23:43.821Z,99155.31
2022-11-05T08:26:10.880Z,99160.13
2022-11-05T08:28:37.661Z,99165.31
2022-11-05T08:31:04.634Z,99174.13
2022-11-05T08:33:31.660Z,99162.09
2022-11-05T08:36:02.956Z,99148.56
2022-11-05T08:38:29.963Z,99140.44
2022-11-05T08:40:57.828Z,99138.19
2022-11-05T08:43:24.780Z,99129.63
2022-11-05T08:45:51.613Z,99130.25
2022-11-05T08:48:19.447Z,99144.16
2022-11-05T08:50:48.205Z,99138.22
2022-11-05T08:53:15.861Z,99137.63
2022-11-05T08:55:44.107Z,99133.34
2022-11-05T08:58:15.386Z,99129.25
2022-11-05T09:00:43.298Z,99123.75
2022-11-05T09:03:10.812Z,99120.28
2022-11-05T09:05:39.565Z,99122.09
2022-11-05T09:08:11.872Z,99115.72
2022-11-05T09:10:39.635Z,99106.53
2022-11-05T09:13:06.755Z,99094.88
2022-11-05T09:15:35.546Z,99093.22
2022-11-05T09:18:05.627Z,99086.06
2022-11-05T09:20:33.319Z,99073.13
2022-11-05T09:23:00.207Z,99070.72
2022-11-05T09:25:27.104Z,99071.81
2022-11-05T09:27:53.844Z,99065.69
2022-11-05T09:30:20.625Z,99074.84
2022-11-05T09:32:47.363Z,99073.88
2022-11-05T09:35:14.177Z,99074.00
2022-11-05T09:37:40.940Z,99073.53
2022-11-05T09:40:08.268Z,99066.72
2022-11-05T09:42:39.209Z,99068.06
2022-11-05T09:45:09.029Z,99069.59
2022-11-05T09:47:49.383Z,99065.03
2022-11-05T09:50:25.066Z,99066.41
2022-11-05T09:52:51.976Z,99072.00
2022-11-05T09:55:29.731Z,99070.19
2022-11-05T09:57:59.895Z,99059.72
2022-11-05T10:00:27.463Z,99059.50
2022-11-05T10:03:04.908Z,99067.50
2022-11-05T10:05:33.025Z,99060.97
2022-11-05T10:08:05.383Z,99060.78
2022-11-05T10:10:41.305Z,99062.28
2022-11-05T10:13:39.977Z,99051.94
2022-11-05T10:16:24.120Z,99047.06
2022-11-05T10:19:24.694Z,99040.47
2022-11-05T10:22:11.974Z,99038.59
2022-11-05T10:24:41.593Z,99026.59
2022-11-05T10:27:13.634Z,99027.31
2022-11-05T10:29:43.003Z,99012.88
2022-11-05T10:32:12.543Z,98997.56
2022-11-05T10:34:39.819Z,99000.25
2022-11-05T10:37:06.573Z,99001.63
2022-11-05T10:39:34.191Z,99001.91
2022-11-05T10:42:25.332Z,99002.13
2022-11-05T10:44:57.926Z,99008.28
2022-11-05T10:47:43.472Z,99007.31
2022-11-05T10:50:17.541Z,98993.00
2022-11-05T10:52:58.785Z,99005.06
2022-11-05T10:55:30.343Z,99011.59
2022-11-05T10:58:15.442Z,98993.75
2022-11-05T11:01:06.767Z,98984.72
2022-11-05T11:03:36.351Z,98990.06
2022-11-05T11:06:22.195Z,98990.19
2022-11-05T11:08:50.114Z,98977.41
2022-11-05T11:11:27.950Z,98981.22
2022-11-05T11:13:57.560Z,98978.34
2022-11-05T11:16:26.693Z,98974.50
2022-11-05T11:19:00.936Z,98980.41
2022-11-05T11:21:29.645Z,98973.13
2022-11-05T11:24:04.924Z,98959.78
2022-11-05T11:26:37.616Z,98955.50
2022-11-05T11:29:08.554Z,98955.25
2022-11-05T11:31:37.780Z,98943.75
2022-11-05T11:34:36.177Z,98943.66
2022-11-05T11:37:09.111Z,98941.56
2022-11-05T11:39:37.252Z,98931.31
2022-11-05T11:42:14.395Z,98936.41
2022-11-05T11:44:44.573Z,98926.41
2022-11-05T11:47:19.346Z,98916.97
2022-11-05T11:49:53.008Z,98918.44
2022-11-05T11:52:36.929Z,98915.66
2022-11-05T11:55:22.653Z,98910.31
2022-11-05T11:57:52.090Z,98900.44
2022-11-05T12:00:20.572Z,98904.34
2022-11-05T12:03:30.879Z,98898.78
2022-11-05T12:06:15.760Z,98900.94
2022-11-05T12:08:59.311Z,98897.69
2022-11-05T12:11:39.410Z,98891.31
2022-11-05T12:14:47.596Z,98887.59
2022-11-05T12:17:29.642Z,98873.66
2022-11-05T12:20:11.688Z,98874.94
2022-11-05T12:23:13.896Z,98872.28
2022-11-05T12:26:02.581Z,98859.72
2022-11-05T12:29:17.300Z,98855.03
2022-11-05T12:31:54.217Z,98849.50
2022-11-05T12:34:33.198Z,98840.50
2022-11-05T12:37:14.961Z,98837.78
2022-11-05T12:40:12.372Z,98835.19
2022-11-05T12:42:51.079Z,98827.25
2022-11-05T12:45:39.806Z,98827.69
2022-11-05T12:48:36.847Z,98826.78
2022-11-05T12:51:33.459Z,98836.34
2022-11-05T12:54:25.121Z,98832.84
2022-11-05T12:56:54.532Z,98834.31
2022-11-05T12:59:24.812Z,98836.13
2022-11-05T13:02:02.723Z,98828.25
2022-11-05T13:04:56.438Z,98833.19
2022-11-05T13:07:36.161Z,98829.28
2022-11-05T13:10:20.120Z,98807.75
2022-11-05T13:12:50.040Z,98810.47
2022-11-05T13:15:46.221Z,98794.00
2022-11-05T13:18:17.059Z,98790.66
2022-11-05T13:20:48.226Z,98792.22
2022-11-05T13:23:30.115Z,98788.22
2022-11-05T13:26:06.360Z,98783.88
2022-11-05T13:28:46.933Z,98785.97
2022-11-05T13:31:19.031Z,98779.34
2022-11-05T13:33:48.550Z,98768.13
2022-11-05T13:36:41.254Z,98756.06
2022-11-05T13:39:23.358Z,98734.72
2022-11-05T13:42:05.523Z,98734.53
2022-11-05T13:44:52.985Z,98717.88
2022-11-05T13:47:50.709Z,98736.09
2022-11-05T13:51:02.210Z,98746.59
2022-11-05T13:53:39.681Z,98741.03
2022-11-05T13:56:38.233Z,98740.38
2022-11-05T13:59:17.290Z,98739.50
2022-11-05T14:01:55.082Z,98742.16
2022-11-05T14:04:47.238Z,98735.19
2022-11-05T14:07:23.469Z,98734.59
2022-11-05T14:09:58.967Z,98739.75
2022-11-05T14:12:32.006Z,98737.63
2022-11-05T14:15:26.365Z,98741.16
2022-11-05T14:17:59.304Z,98743.63
2022-11-05T14:20:39.239Z,98727.03
2022-11-05T14:23:22.516Z,98729.56
2022-11-05T14:25:54.262Z,98721.53
2022-11-05T14:28:36.502Z,98737.38
2022-11-05T14:31:05.221Z,98749.50
2022-11-05T14:33:38.364Z,98742.44
2022-11-05T14:36:41.021Z,98747.50
2022-11-05T14:39:18.913Z,98747.97
2022-11-05T14:42:14.788Z,98760.38
2022-11-05T14:45:08.296Z,98761.16
2022-11-05T14:47:38.811Z,98744.81
2022-11-05T14:50:24.283Z,98739.66
2022-11-05T14:52:58.805Z,98741.06
2022-11-05T14:55:37.522Z,98733.03
2022-11-05T14:58:26.075Z,98740.59
2022-11-05T15:00:53.381Z,98742.03
2022-11-05T15:03:31.304Z,98732.38
2022-11-05T15:06:19.940Z,98744.03
2022-11-05T15:08:49.770Z,98744.25
2022-11-05T15:11:29.826Z,98729.88
2022-11-05T15:13:59.612Z,98731.94
2022-11-05T15:16:37.831Z,98728.88
2022-11-05T15:19:05.177Z,98720.66
2022-11-05T15:21:34.963Z,98732.88
2022-11-05T15:24:02.390Z,98738.47
2022-11-05T15:27:05.407Z,98725.34
2022-11-05T15:29:33.099Z,98740.34
2022-11-05T15:32:00.318Z,98726.72
2022-11-05T15:34:31.729Z,98722.50
2022-11-05T15:37:03.609Z,98716.97
2022-11-05T15:39:38.585Z,98709.44
2022-11-05T15:42:27.475Z,98698.72
2022-11-05T15:44:56.522Z,98680.28
2022-11-05T15:47:24.377Z,98674.16
2022-11-05T15:49:54.203Z,98657.50
2022-11-05T15:52:23.286Z,98661.50
2022-11-05T15:55:10.416Z,98682.69
2022-11-05T15:57:40.280Z,98687.59
2022-11-05T16:00:15.710Z,98724.03
2022-11-05T16:02:43.224Z,98720.19
2022-11-05T16:05:13.505Z,98691.28
2022-11-05T16:07:49.549Z,98704.28
2022-11-05T16:10:20.311Z,98708.09
2022-11-05T16:12:47.458Z,98710.44
2022-11-05T16:15:14.257Z,98705.41
2022-11-05T16:17:50.667Z,98697.31
2022-11-05T16:20:25.815Z,98704.91
2022-11-05T16:22:55.477Z,98696.63
2022-11-05T16:25:28.704Z,98717.72
2022-11-05T16:27:57.290Z,98716.16
2022-11-05T16:30:24.711Z,98719.63
2022-11-05T16:32:51.870Z,98721.13
2022-11-05T16:35:24.439Z,98714.00
2022-11-05T16:37:52.717Z,98717.59
2022-11-05T16:40:25.402Z,98708.09
2022-11-05T16:42:53.841Z,98709.63
2022-11-05T16:45:23.971Z,98709.63
2022-11-05T16:47:51.085Z,98712.25
2022-11-05T16:50:24.247Z,98718.59
2022-11-05T16:52:51.902Z,98713.13
2022-11-05T16:55:19.352Z,98705.72
2022-11-05T16:57:51.793Z,98698.91
2022-11-05T17:00:20.189Z,98704.66
2022-11-05T17:02:47.109Z,98717.13
2022-11-05T17:05:32.501Z,98712.31
2022-11-05T17:08:01.282Z,98726.78
2022-11-05T17:10:28.008Z,98724.91
2022-11-05T17:12:55.248Z,98717.63
2022-11-05T17:15:35.689Z,98714.88
2022-11-05T17:18:04.322Z,98718.25
2022-11-05T17:20:36.532Z,98714.59
2022-11-05T17:23:06.574Z,98714.13
2022-11-05T17:25:34.076Z,98711.59
2022-11-05T17:28:01.050Z,98717.91
2022-11-05T17:30:27.998Z,98714.31
2022-11-05T17:32:55.101Z,98718.84
2022-11-05T17:35:22.190Z,98718.88
2022-11-05T17:37:49.230Z,98722.94
2022-11-05T17:40:18.009Z,98722.28
2022-11-05T17:42:45.309Z,98717.88
2022-11-05T17:45:13.128Z,98725.53
2022-11-05T17:47:40.877Z,98724.38
2022-11-05T17:50:09.805Z,98731.69
2022-11-05T17:52:36.843Z,98729.94
2022-11-05T17:55:08.626Z,98729.69
2022-11-05T17:57:35.650Z,98738.41
2022-11-05T18:00:02.488Z,98744.91
2022-11-05T18:02:37.775Z,98745.47
2022-11-05T18:05:05.238Z,98749.31
2022-11-05T18:07:32.103Z,98750.59
2022-11-05T18:09:58.951Z,98752.19
2022-11-05T18:12:25.794Z,98746.84
2022-11-05T18:14:52.610Z,98750.00
2022-11-05T18:17:19.420Z,98755.09
2022-11-05T18:19:46.769Z,98750.69
2022-11-05T18:22:15.608Z,98759.97
2022-11-05T18:24:42.539Z,98760.88
2022-11-05T18:27:09.944Z,98768.78
2022-11-05T18:29:37.181Z,98761.47
2022-11-05T18:32:04.355Z,98759.84
2022-11-05T18:34:31.227Z,98765.16
2022-11-05T18:36:58.221Z,98770.28
2022-11-05T18:39:25.333Z,98774.69
2022-11-05T18:41:52.278Z,98777.00
2022-11-05T18:44:22.790Z,98771.31
2022-11-05T18:46:58.663Z,98773.84
2022-11-05T18:49:26.870Z,98778.50
2022-11-05T18:51:54.005Z,98777.59
2022-11-05T18:54:21.402Z,98787.63
2022-11-05T18:56:48.219Z,98779.72
2022-11-05T19:02:05.093Z,98787.78
2022-11-05T19:04:31.949Z,98773.78
2022-11-05T19:07:03.355Z,98781.53
2022-11-05T19:09:31.583Z,98783.63
2022-11-05T19:11:58.301Z,98777.59
2022-11-05T19:14:25.132Z,98779.69
2022-11-05T19:16:51.962Z,98780.81
2022-11-05T19:19:19.075Z,98776.75
2022-11-05T19:21:45.957Z,98781.78
2022-11-05T19:24:16.715Z,98782.13
2022-11-05T19:26:46.795Z,98777.78
2022-11-05T19:29:13.767Z,98778.47
2022-11-05T19:31:40.561Z,98778.25
2022-11-05T19:34:07.459Z,98781.22
2022-11-05T19:36:34.507Z,98775.31
2022-11-05T19:39:06.437Z,98771.31
2022-11-05T19:41:33.491Z,98779.25
2022-11-05T19:44:01.815Z,98775.19
2022-11-05T19:46:30.266Z,98776.56
2022-11-05T19:48:57.308Z,98772.88
2022-11-05T19:51:26.710Z,98782.03
2022-11-05T19:53:55.253Z,98783.56
2022-11-05T19:56:26.406Z,98779.94
2022-11-05T19:58:54.188Z,98777.84
2022-11-05T20:01:22.497Z,98776.06
2022-11-05T20:03:50.147Z,98770.38
2022-11-05T20:06:23.225Z,98782.19
2022-11-05T20:11:37.844Z,98769.50
2022-11-05T20:14:05.009Z,98756.91
2022-11-05T20:16:37.908Z,98747.53
2022-11-05T20:19:11.979Z,98755.88
2022-11-05T20:21:40.928Z,98770.56
2022-11-05T20:24:08.235Z,98767.59
2022-11-05T20:26:35.305Z,98764.19
2022-11-05T20:29:02.094Z,98778.03
2022-11-05T20:31:29.151Z,98785.50
2022-11-05T20:33:56.560Z,98789.72
2022-11-05T20:36:24.775Z,98789.78
2022-11-05T20:39:02.879Z,98798.34
2022-11-05T20:41:30.750Z,98796.13
2022-11-05T20:43:57.984Z,98799.47
2022-11-05T20:46:24.993Z,98804.78
2022-11-05T20:48:52.276Z,98804.06
2022-11-05T20:51:21.707Z,98807.72
2022-11-05T20:53:49.181Z,98808.44
2022-11-05T20:56:22.728Z,98808.47
2022-11-05T20:58:50.364Z,98809.78
2022-11-05T21:01:17.695Z,98804.34
2022-11-05T21:03:45.509Z,98809.66
2022-11-05T21:06:13.377Z,98809.75
2022-11-05T21:08:40.346Z,98818.00
2022-11-05T21:11:07.421Z,98814.44
2022-11-05T21:13:34.481Z,98819.72
2022-11-05T21:16:01.638Z,98822.72
2022-11-05T21:18:32.433Z,98828.94
2022-11-05T21:21:02.171Z,98821.69
2022-11-05T21:23:29.169Z,98832.78
2022-11-05T21:25:56.534Z,98823.19
2022-11-05T21:28:23.369Z,98830.56
2022-11-05T21:30:50.177Z,98832.47
2022-11-05T21:33:18.413Z,98828.78
2022-11-05T21:35:47.486Z,98840.03
2022-11-05T21:38:16.435Z,98836.91
2022-11-05T21:40:43.754Z,98832.09
2022-11-05T21:43:11.108Z,98831.53
2022-11-05T21:45:39.549Z,98831.84
2022-11-05T21:48:07.324Z,98832.09
2022-11-05T21:50:52.893Z,98826.88
2022-11-05T21:53:38.454Z,98823.22
2022-11-05T21:56:25.871Z,98817.78
2022-11-05T21:59:11.259Z,98815.34
2022-11-05T22:01:38.120Z,98828.28
2022-11-05T22:04:05.090Z,98824.94
2022-11-05T22:06:35.020Z,98830.50
2022-11-05T22:09:01.910Z,98825.59
2022-11-05T22:11:28.700Z,98822.06
2022-11-05T22:13:55.615Z,98830.91
2022-11-05T22:16:23.285Z,98832.16
2022-11-05T22:18:50.467Z,98832.31
2022-11-05T22:21:18.856Z,98833.50
2022-11-05T22:23:45.672Z,98841.22
2022-11-05T22:26:12.706Z,98846.31
2022-11-05T22:28:39.493Z,98843.25
2022-11-05T22:31:13.156Z,98836.91
2022-11-05T22:33:40.047Z,98832.06
2022-11-05T22:36:07.322Z,98831.69
2022-11-05T22:38:34.565Z,98840.03
2022-11-05T22:41:07.496Z,98833.44
2022-11-05T22:43:34.606Z,98823.22
2022-11-05T22:46:09.943Z,98808.78
2022-11-05T22:48:38.286Z,98821.84
2022-11-05T22:51:14.518Z,98822.13
2022-11-05T22:53:41.844Z,98814.09
2022-11-05T22:56:15.482Z,98820.50
2022-11-05T22:58:42.937Z,98818.06
2022-11-05T23:01:14.169Z,98813.63
2022-11-05T23:03:43.414Z,98814.41
2022-11-05T23:06:40.034Z,98816.38
2022-11-05T23:09:37.036Z,98803.53
2022-11-05T23:12:06.682Z,98811.81
2022-11-05T23:14:34.402Z,98806.34
2022-11-05T23:17:19.860Z,98814.69
2022-11-05T23:20:05.391Z,98810.56
2022-11-05T23:22:51.254Z,98814.63
2022-11-05T23:25:22.537Z,98816.78
2022-11-05T23:27:51.223Z,98815.44
2022-11-05T23:30:20.677Z,98813.44
2022-11-05T23:32:48.214Z,98812.41
2022-11-05T23:35:15.237Z,98806.81
2022-11-05T23:38:00.824Z,98804.22
2022-11-05T23:40:30.155Z,98800.47
2022-11-05T23:43:16.054Z,98796.84
2022-11-05T23:46:02.916Z,98794.31
2022-11-05T23:48:31.768Z,98782.47
2022-11-05T23:51:06.459Z,98786.47
2022-11-05T23:53:35.343Z,98785.97
2022-11-05T23:56:05.472Z,98788.34
2022-11-05T23:58:32.850Z,98779.59
